Pamlico — WX6900 — position and weather

sailwx.info

Track history (hours):
 
Tides and Currents Weather Stations Pressure Air Temp Water Temp Dewpoint Dewpoint Depression Visibility Wind Speed Wind Dir Waves Ship Positions

Pamlico

Owner: PCS Phosphate, AURORA, NC. More information available from US FCC via Universal Licensing System and Coast Guard Vessel Documentation Center.

Last reported at 2016-Dec-03 06:23 UTC. Time now 2016-Dec-03 17:43 UTC.
Position N 34°59' W 076°41'.

; draft 2 m.

Type: Tug. MMSI: 367361220.

Date/timePositionNaut miles runAvg speedWind from/ knotsBaromVisibWave heightAir tempDewpointWater temp
2016-Dec-03 06:23N 34°59' W 076°41'5 6.1
2016-Dec-03 05:33N 34°54' W 076°41'7 6.6
2016-Dec-03 04:33N 34°47' W 076°41'4 4.2
2016-Dec-03 03:33N 34°43' W 076°42'0 0.1
2016-Dec-03 02:33N 34°43' W 076°42'4 4.0
2016-Dec-03 01:33N 34°47' W 076°41'5 5.4
2016-Dec-03 00:33N 34°53' W 076°42'5 4.8
2016-Dec-02 23:33N 34°57' W 076°41'11 0.9
2016-Dec-02 10:23N 35°06' W 076°31'12 6.3
2016-Dec-02 08:33N 34°56' W 076°39'5 5.4
2016-Dec-02 07:33N 34°51' W 076°41'6 5.6
2016-Dec-02 06:33N 34°46' W 076°41'2 2.5
2016-Dec-02 05:33N 34°43' W 076°42'3 2.9
2016-Dec-02 04:33N 34°46' W 076°41'5 5.2
2016-Dec-02 03:33N 34°51' W 076°41'5 4.8
2016-Dec-02 02:33N 34°56' W 076°39'11 5.6
2016-Dec-02 00:32N 35°05' W 076°32'9 0.3
2016-Nov-30 23:13N 35°00' W 076°40'4 6.1
2016-Nov-30 22:33N 34°56' W 076°39'6 5.6
2016-Nov-30 21:33N 34°51' W 076°41'6 5.7
2016-Nov-30 20:33N 34°45' W 076°40'2 2.2
2016-Nov-30 19:33N 34°43' W 076°42'0 0.0
2016-Nov-30 18:33N 34°43' W 076°42'0 0.0
2016-Nov-30 17:33N 34°43' W 076°42'0 0.0
2016-Nov-30 16:33N 34°43' W 076°42'0 0.0
2016-Nov-30 15:33N 34°43' W 076°42'4 4.4
2016-Nov-30 14:33N 34°48' W 076°41'4 4.3
2016-Nov-30 13:33N 34°52' W 076°42'4 4.4
2016-Nov-30 12:33N 34°56' W 076°39'2 0.1
2016-Nov-29 00:08N 34°58' W 076°41'4 6.4
2016-Nov-28 23:33N 34°54' W 076°40'6 5.8
2016-Nov-28 22:33N 34°49' W 076°41'5 5.2
2016-Nov-28 21:33N 34°43' W 076°42'0 0.0
2016-Nov-28 20:33N 34°43' W 076°42'0 0.0
2016-Nov-28 19:33N 34°43' W 076°42'0 0.0
2016-Nov-28 18:33N 34°43' W 076°42'0 0.0
2016-Nov-28 17:33N 34°43' W 076°42'3 2.9
2016-Nov-28 16:33N 34°46' W 076°41'5 5.4
2016-Nov-28 15:33N 34°52' W 076°41'5 4.8
2016-Nov-28 14:33N 34°56' W 076°39'5 5.1
2016-Nov-28 13:30N 35°01' W 076°38'7 7.2
2016-Nov-28 12:33N 35°05' W 076°32'6 5.9
2016-Nov-28 11:33N 35°11' W 076°34'14 0.3
2016-Nov-26 18:13N 34°59' W 076°41'4 6.2
2016-Nov-26 17:33N 34°55' W 076°40'5 5.3
2016-Nov-26 16:33N 34°50' W 076°41'6 5.8
2016-Nov-26 15:33N 34°44' W 076°41'1 1.0
2016-Nov-26 14:33N 34°43' W 076°42'4 4.3
2016-Nov-26 13:33N 34°48' W 076°41'5 4.6
2016-Nov-26 12:33N 34°52' W 076°42'5 4.4
2016-Nov-26 11:31N 34°56' W 076°40'11 5.7
2016-Nov-26 09:33N 35°06' W 076°32'6 5.8
2016-Nov-26 08:33N 35°11' W 076°34'  
Track history (hours):
 
Tides and Currents Weather Stations Pressure Air Temp Water Temp Dewpoint Dewpoint Depression Visibility Wind Speed Wind Dir Waves Ship Positions

Pamlico

Owner: PCS Phosphate, AURORA, NC. More information available from US FCC via Universal Licensing System and Coast Guard Vessel Documentation Center.

Last reported at 2016-Dec-03 06:23 UTC. Time now 2016-Dec-03 17:43 UTC.
Position N 34°59' W 076°41'.

; draft 2 m.

Type: Tug. MMSI: 367361220.

Date/timePositionNaut miles runAvg speedWind from/ knotsBaromVisibWave heightAir tempDewpointWater temp
2016-Dec-03 06:23N 34°59' W 076°41'5 6.1
2016-Dec-03 05:33N 34°54' W 076°41'7 6.6
2016-Dec-03 04:33N 34°47' W 076°41'4 4.2
2016-Dec-03 03:33N 34°43' W 076°42'0 0.1
2016-Dec-03 02:33N 34°43' W 076°42'4 4.0
2016-Dec-03 01:33N 34°47' W 076°41'5 5.4
2016-Dec-03 00:33N 34°53' W 076°42'5 4.8
2016-Dec-02 23:33N 34°57' W 076°41'11 0.9
2016-Dec-02 10:23N 35°06' W 076°31'12 6.3
2016-Dec-02 08:33N 34°56' W 076°39'5 5.4
2016-Dec-02 07:33N 34°51' W 076°41'6 5.6
2016-Dec-02 06:33N 34°46' W 076°41'2 2.5
2016-Dec-02 05:33N 34°43' W 076°42'3 2.9
2016-Dec-02 04:33N 34°46' W 076°41'5 5.2
2016-Dec-02 03:33N 34°51' W 076°41'5 4.8
2016-Dec-02 02:33N 34°56' W 076°39'11 5.6
2016-Dec-02 00:32N 35°05' W 076°32'9 0.3
2016-Nov-30 23:13N 35°00' W 076°40'4 6.1
2016-Nov-30 22:33N 34°56' W 076°39'6 5.6
2016-Nov-30 21:33N 34°51' W 076°41'6 5.7
2016-Nov-30 20:33N 34°45' W 076°40'2 2.2
2016-Nov-30 19:33N 34°43' W 076°42'0 0.0
2016-Nov-30 18:33N 34°43' W 076°42'0 0.0
2016-Nov-30 17:33N 34°43' W 076°42'0 0.0
2016-Nov-30 16:33N 34°43' W 076°42'0 0.0
2016-Nov-30 15:33N 34°43' W 076°42'4 4.4
2016-Nov-30 14:33N 34°48' W 076°41'4 4.3
2016-Nov-30 13:33N 34°52' W 076°42'4 4.4
2016-Nov-30 12:33N 34°56' W 076°39'2 0.1
2016-Nov-29 00:08N 34°58' W 076°41'4 6.4
2016-Nov-28 23:33N 34°54' W 076°40'6 5.8
2016-Nov-28 22:33N 34°49' W 076°41'5 5.2
2016-Nov-28 21:33N 34°43' W 076°42'0 0.0
2016-Nov-28 20:33N 34°43' W 076°42'0 0.0
2016-Nov-28 19:33N 34°43' W 076°42'0 0.0
2016-Nov-28 18:33N 34°43' W 076°42'0 0.0
2016-Nov-28 17:33N 34°43' W 076°42'3 2.9
2016-Nov-28 16:33N 34°46' W 076°41'5 5.4
2016-Nov-28 15:33N 34°52' W 076°41'5 4.8
2016-Nov-28 14:33N 34°56' W 076°39'5 5.1
2016-Nov-28 13:30N 35°01' W 076°38'7 7.2
2016-Nov-28 12:33N 35°05' W 076°32'6 5.9
2016-Nov-28 11:33N 35°11' W 076°34'14 0.3
2016-Nov-26 18:13N 34°59' W 076°41'4 6.2
2016-Nov-26 17:33N 34°55' W 076°40'5 5.3
2016-Nov-26 16:33N 34°50' W 076°41'6 5.8
2016-Nov-26 15:33N 34°44' W 076°41'1 1.0
2016-Nov-26 14:33N 34°43' W 076°42'4 4.3
2016-Nov-26 13:33N 34°48' W 076°41'5 4.6
2016-Nov-26 12:33N 34°52' W 076°42'5 4.4
2016-Nov-26 11:31N 34°56' W 076°40'11 5.7
2016-Nov-26 09:33N 35°06' W 076°32'6 5.8
2016-Nov-26 08:33N 35°11' W 076°34'  

Dump ship's entire track history